Time;durP1;ratioP1;P1;durP2;ratioP2;P2;SDS_P1;SDS_P2;PMS_P1;PMS_P2;Temp;Humidity;BMP_temperature;BMP_pressure;BME280_temperature;BME280_humidity;BME280_pressure;Samples;Min_cycle;Max_cycle;Signal;HPM_P1;HPM_P2
2021/01/04 00:01:44;;;;;;;12.07;10.87;;;7.30;90.00;;;;;;5051069;28;20628;-50
2021/01/04 00:04:20;;;;;;;13.57;12.37;;;7.30;90.10;;;;;;5069543;28;20792;-52
2021/01/04 00:07:12;;;;;;;13.03;11.60;;;7.30;90.00;;;;;;5069392;28;20639;-51
2021/01/04 00:10:03;;;;;;;13.13;11.97;;;7.30;90.20;;;;;;5069739;28;20677;-52
2021/01/04 00:12:33;;;;;;;11.83;10.63;;;7.20;90.10;;;;;;5064460;28;20650;-52
2021/01/04 00:15:05;;;;;;;12.33;11.03;;;7.30;90.10;;;;;;5068245;28;21058;-52
2021/01/04 00:17:46;;;;;;;12.97;10.93;;;7.30;90.00;;;;;;5070884;28;20709;-51
2021/01/04 00:20:16;;;;;;;12.67;11.47;;;7.30;90.00;;;;;;5072506;28;20689;-50
2021/01/04 00:22:45;;;;;;;11.80;10.70;;;7.30;90.00;;;;;;5069192;28;20628;-52
2021/01/04 00:25:16;;;;;;;12.50;11.30;;;7.30;89.80;;;;;;5069199;28;20618;-51
2021/01/04 00:27:46;;;;;;;11.97;10.87;;;7.30;89.90;;;;;;5061218;28;20636;-49
2021/01/04 00:30:17;;;;;;;12.30;11.10;;;7.20;89.80;;;;;;5064720;28;21104;-51
2021/01/04 00:32:44;;;;;;;11.87;10.87;;;7.30;90.00;;;;;;5064890;28;20981;-51
2021/01/04 00:35:13;;;;;;;12.43;11.27;;;7.30;90.10;;;;;;5048991;28;20653;-51
2021/01/04 00:38:16;;;;;;;12.23;11.13;;;7.20;90.10;;;;;;5049286;28;20670;-51
2021/01/04 00:40:57;;;;;;;11.87;10.77;;;7.20;90.60;;;;;;5049150;28;20643;-50
2021/01/04 00:43:27;;;;;;;13.17;11.83;;;7.20;90.20;;;;;;5048727;28;20699;-52
2021/01/04 00:45:54;;;;;;;12.93;11.53;;;7.20;90.20;;;;;;5049729;28;20922;-49
2021/01/04 00:48:28;;;;;;;24.67;13.40;;;7.20;90.20;;;;;;5053654;28;21173;-52
2021/01/04 00:51:05;;;;;;;11.73;10.67;;;7.20;90.10;;;;;;5052450;28;20626;-51
2021/01/04 00:53:32;;;;;;;12.30;11.20;;;7.20;90.10;;;;;;5052856;28;20724;-50
2021/01/04 00:56:06;;;;;;;11.90;10.90;;;7.20;90.20;;;;;;5061143;28;21211;-50
2021/01/04 00:59:05;;;;;;;13.10;10.67;;;7.20;90.30;;;;;;5072263;28;20997;-53
2021/01/04 01:01:40;;;;;;;13.17;11.87;;;7.10;90.30;;;;;;5045883;28;20712;-52
2021/01/04 01:04:11;;;;;;;11.30;10.20;;;7.20;90.20;;;;;;5072315;28;21170;-52
2021/01/04 01:06:46;;;;;;;11.87;10.70;;;7.20;90.20;;;;;;5072692;28;21240;-51
2021/01/04 01:09:13;;;;;;;13.83;12.60;;;7.20;90.20;;;;;;5072689;28;20636;-51
2021/01/04 01:11:58;;;;;;;12.30;11.10;;;7.20;90.20;;;;;;5070934;28;20651;-52
2021/01/04 01:14:26;;;;;;;12.70;11.40;;;7.20;90.30;;;;;;5071696;28;20640;-52
2021/01/04 01:17:21;;;;;;;12.17;10.97;;;7.20;90.20;;;;;;5072172;28;20686;-49
2021/01/04 01:19:49;;;;;;;13.43;12.03;;;7.20;90.20;;;;;;5072422;28;21183;-51
2021/01/04 01:22:22;;;;;;;12.80;11.60;;;7.20;90.30;;;;;;5070885;28;20710;-50
2021/01/04 01:24:49;;;;;;;12.50;11.30;;;7.20;90.00;;;;;;5071058;28;21039;-52
2021/01/04 01:27:30;;;;;;;13.73;12.53;;;7.20;90.10;;;;;;5071457;28;20628;-52
2021/01/04 01:30:16;;;;;;;12.90;11.80;;;7.20;90.00;;;;;;5071460;28;20681;-51
2021/01/04 01:33:11;;;;;;;12.60;11.37;;;7.20;90.00;;;;;;5071531;28;20687;-51
2021/01/04 01:35:45;;;;;;;12.53;11.53;;;7.20;90.00;;;;;;5072155;28;20690;-52
2021/01/04 01:38:53;;;;;;;14.30;12.83;;;7.20;90.00;;;;;;5072690;28;20962;-51
2021/01/04 01:41:40;;;;;;;12.73;11.50;;;7.20;90.10;;;;;;5072484;28;21264;-52
2021/01/04 01:44:12;;;;;;;13.90;12.50;;;7.20;90.20;;;;;;5071166;28;21159;-51
2021/01/04 01:46:41;;;;;;;11.20;9.97;;;7.20;90.10;;;;;;5064535;28;21258;-51
2021/01/04 01:49:18;;;;;;;12.57;10.37;;;7.20;90.10;;;;;;5051910;28;20690;-52
2021/01/04 01:52:06;;;;;;;11.37;10.37;;;7.20;90.00;;;;;;5056025;28;20683;-52
2021/01/04 01:54:40;;;;;;;12.07;10.73;;;7.20;90.20;;;;;;5071199;28;20805;-51
2021/01/04 01:57:20;;;;;;;11.17;10.13;;;7.10;90.10;;;;;;5070611;28;20647;-51
2021/01/04 02:00:03;;;;;;;11.30;10.20;;;7.10;90.00;;;;;;5071874;28;20658;-52
2021/01/04 02:02:32;;;;;;;12.47;11.17;;;7.10;90.10;;;;;;5070369;28;20741;-51
2021/01/04 02:05:04;;;;;;;11.87;10.40;;;7.10;90.10;;;;;;5071007;28;20623;-52
2021/01/04 02:07:33;;;;;;;12.63;11.33;;;7.10;90.10;;;;;;5070380;28;21032;-52
2021/01/04 02:10:03;;;;;;;13.17;11.80;;;7.10;90.20;;;;;;5071124;28;20620;-52
2021/01/04 02:12:34;;;;;;;11.90;10.70;;;7.10;90.20;;;;;;5071382;28;20624;-51
2021/01/04 02:15:08;;;;;;;13.07;11.77;;;7.10;90.10;;;;;;5052521;28;21012;-48
2021/01/04 02:18:01;;;;;;;12.83;11.57;;;7.10;90.10;;;;;;5069848;28;20744;-49
2021/01/04 02:20:51;;;;;;;13.10;11.77;;;7.10;90.30;;;;;;5070117;28;20711;-50
2021/01/04 02:23:24;;;;;;;10.87;9.87;;;7.10;90.20;;;;;;5050808;28;21221;-49
2021/01/04 02:25:53;;;;;;;12.27;11.00;;;7.10;90.30;;;;;;5051576;28;20647;-49
2021/01/04 02:28:23;;;;;;;12.40;11.10;;;7.10;90.40;;;;;;5050624;28;20624;-49
2021/01/04 02:30:49;;;;;;;12.37;11.17;;;7.10;90.40;;;;;;5049296;28;20631;-50
2021/01/04 02:33:16;;;;;;;14.50;12.90;;;7.10;90.70;;;;;;5050369;28;20990;-49
2021/01/04 02:35:43;;;;;;;14.70;12.00;;;7.10;90.50;;;;;;5052286;28;20695;-49
2021/01/04 02:38:10;;;;;;;13.40;12.00;;;7.10;90.40;;;;;;5070289;28;20665;-50
2021/01/04 02:40:37;;;;;;;13.50;12.13;;;7.10;90.30;;;;;;5067776;28;20663;-50
2021/01/04 02:43:04;;;;;;;13.90;12.47;;;7.10;90.30;;;;;;5050945;28;20656;-49
2021/01/04 02:45:31;;;;;;;12.73;11.40;;;7.10;90.20;;;;;;5050249;28;20648;-49
2021/01/04 02:48:15;;;;;;;14.90;13.33;;;7.00;90.20;;;;;;5035705;28;20654;-50
2021/01/04 02:50:49;;;;;;;12.67;11.37;;;7.10;90.40;;;;;;5069528;28;20643;-49
2021/01/04 02:53:35;;;;;;;12.60;10.93;;;7.10;90.30;;;;;;5069449;28;20659;-49
2021/01/04 02:56:05;;;;;;;12.37;11.33;;;7.10;90.50;;;;;;5069864;28;20717;-50
2021/01/04 02:58:40;;;;;;;13.03;11.67;;;7.10;90.40;;;;;;5069948;28;20761;-48
2021/01/04 03:01:08;;;;;;;14.53;13.10;;;7.10;90.30;;;;;;5069981;28;20622;-50
2021/01/04 03:03:35;;;;;;;12.50;11.20;;;7.10;90.20;;;;;;5051674;28;20662;-49
2021/01/04 03:06:03;;;;;;;12.47;11.27;;;7.10;90.20;;;;;;5069803;28;20627;-49
2021/01/04 03:08:29;;;;;;;12.37;10.87;;;7.00;90.20;;;;;;5069054;28;20659;-49
2021/01/04 03:10:57;;;;;;;12.67;11.43;;;7.10;90.20;;;;;;5069943;28;20662;-50
2021/01/04 03:13:30;;;;;;;13.10;11.57;;;7.00;90.20;;;;;;5064065;28;20709;-49
2021/01/04 03:16:05;;;;;;;12.03;10.83;;;7.00;90.30;;;;;;5049872;28;20695;-49
2021/01/04 03:18:35;;;;;;;12.37;11.00;;;7.00;90.40;;;;;;5049894;28;20663;-49
2021/01/04 03:21:01;;;;;;;11.90;10.70;;;7.00;90.50;;;;;;5061540;28;20934;-48
2021/01/04 03:23:29;;;;;;;14.13;12.40;;;7.00;90.50;;;;;;5069494;28;20661;-49
2021/01/04 03:25:56;;;;;;;12.53;11.30;;;7.00;90.30;;;;;;5069638;28;20651;-49
2021/01/04 03:28:25;;;;;;;11.40;10.30;;;7.00;90.40;;;;;;5070459;28;20755;-50
2021/01/04 03:30:54;;;;;;;12.47;10.90;;;7.00;90.50;;;;;;5069458;28;21583;-50
2021/01/04 03:33:22;;;;;;;12.73;11.10;;;7.00;90.50;;;;;;5069757;28;20652;-49
2021/01/04 03:35:49;;;;;;;12.23;10.40;;;7.00;90.60;;;;;;5069519;28;20692;-49
2021/01/04 03:38:16;;;;;;;13.07;11.73;;;7.00;90.60;;;;;;5069711;28;20684;-49
2021/01/04 03:40:43;;;;;;;12.90;11.40;;;7.00;90.60;;;;;;5068975;28;20638;-52
2021/01/04 03:43:10;;;;;;;11.87;10.67;;;7.00;90.50;;;;;;5067905;28;20982;-52
2021/01/04 03:45:37;;;;;;;11.40;10.30;;;7.00;90.50;;;;;;5069598;28;20677;-53
2021/01/04 03:48:04;;;;;;;12.57;11.23;;;7.00;90.50;;;;;;5069012;28;21253;-52
2021/01/04 03:50:32;;;;;;;11.90;10.70;;;7.00;90.40;;;;;;5069384;28;20625;-53
2021/01/04 03:52:59;;;;;;;12.40;11.10;;;7.10;90.30;;;;;;5069848;28;21005;-52
2021/01/04 03:55:26;;;;;;;13.33;12.03;;;7.00;90.20;;;;;;5069650;28;20655;-50
2021/01/04 03:57:52;;;;;;;12.37;11.07;;;7.00;90.20;;;;;;5069156;28;20623;-50
2021/01/04 04:00:20;;;;;;;12.93;11.50;;;7.00;90.10;;;;;;5051493;28;21050;-52
2021/01/04 04:02:48;;;;;;;13.73;12.33;;;7.00;90.20;;;;;;5068755;28;21159;-51
2021/01/04 04:05:17;;;;;;;12.97;11.13;;;7.00;90.30;;;;;;5051277;28;20705;-51
2021/01/04 04:07:45;;;;;;;15.00;12.87;;;7.00;90.40;;;;;;5051429;28;20622;-49
2021/01/04 04:10:12;;;;;;;12.43;11.23;;;7.00;90.50;;;;;;5069255;28;20970;-48
2021/01/04 04:12:39;;;;;;;12.40;11.10;;;7.00;90.60;;;;;;5068956;28;21159;-50
2021/01/04 04:15:07;;;;;;;12.33;11.13;;;7.00;90.50;;;;;;5069093;28;20749;-48
2021/01/04 04:17:34;;;;;;;14.37;12.10;;;7.00;90.60;;;;;;5054298;28;20644;-50
2021/01/04 04:20:01;;;;;;;14.57;11.90;;;7.00;90.60;;;;;;5047974;28;21001;-49
2021/01/04 04:22:28;;;;;;;11.93;10.00;;;7.00;90.60;;;;;;5049288;28;20660;-49
2021/01/04 04:24:55;;;;;;;13.63;12.20;;;7.00;90.50;;;;;;5048269;28;20695;-50
2021/01/04 04:27:22;;;;;;;13.30;11.20;;;7.00;90.60;;;;;;5049148;28;20623;-49
2021/01/04 04:29:49;;;;;;;13.70;12.27;;;7.00;90.70;;;;;;5069307;28;20981;-48
2021/01/04 04:32:17;;;;;;;12.73;11.30;;;7.00;90.70;;;;;;5068911;28;20665;-49
2021/01/04 04:34:44;;;;;;;11.90;10.70;;;6.90;90.60;;;;;;5068405;28;20727;-49
2021/01/04 04:37:10;;;;;;;14.30;11.93;;;6.90;90.60;;;;;;5068244;28;20773;-48
2021/01/04 04:39:37;;;;;;;13.40;11.83;;;6.90;90.60;;;;;;5068733;28;20729;-49
2021/01/04 04:42:07;;;;;;;12.87;11.57;;;6.90;90.70;;;;;;5068945;28;20624;-48
2021/01/04 04:44:35;;;;;;;14.20;11.80;;;6.80;90.80;;;;;;5047298;28;20653;-51
2021/01/04 04:47:08;;;;;;;13.00;11.47;;;6.90;91.00;;;;;;5068490;28;20653;-51
2021/01/04 04:49:57;;;;;;;13.10;11.43;;;6.80;91.30;;;;;;5068777;28;20683;-51
2021/01/04 04:52:48;;;;;;;13.03;11.40;;;6.80;91.20;;;;;;5068801;28;20791;-52
2021/01/04 04:55:17;;;;;;;10.63;9.53;;;6.80;91.20;;;;;;5059292;28;20749;-52
2021/01/04 04:58:13;;;;;;;11.70;10.43;;;6.80;91.20;;;;;;5068386;28;20630;-51
2021/01/04 05:01:01;;;;;;;11.30;10.10;;;6.80;91.30;;;;;;5065277;28;20634;-50
2021/01/04 05:03:35;;;;;;;11.63;10.53;;;6.90;91.40;;;;;;5068691;28;21187;-50
2021/01/04 05:06:11;;;;;;;11.27;10.13;;;6.90;91.30;;;;;;5068746;28;20622;-51
2021/01/04 05:08:46;;;;;;;11.60;10.03;;;6.90;91.20;;;;;;5068922;28;20698;-51
2021/01/04 05:11:13;;;;;;;14.67;11.43;;;6.90;91.20;;;;;;5068616;28;20688;-51
2021/01/04 05:13:42;;;;;;;29.57;13.93;;;6.90;91.10;;;;;;5066857;28;20723;-50
2021/01/04 05:16:10;;;;;;;11.60;10.47;;;6.90;91.10;;;;;;5068060;28;20669;-52
2021/01/04 05:18:51;;;;;;;12.43;11.20;;;6.90;91.10;;;;;;5068216;28;20700;-52
2021/01/04 05:21:57;;;;;;;11.50;10.17;;;6.90;91.10;;;;;;5050237;28;20778;-50
2021/01/04 05:24:37;;;;;;;12.07;10.70;;;6.90;91.20;;;;;;4992238;28;20676;-50
2021/01/04 05:27:15;;;;;;;12.80;10.13;;;6.90;91.00;;;;;;5048148;28;20680;-50
2021/01/04 05:30:19;;;;;;;11.90;10.70;;;6.90;91.00;;;;;;5048385;28;20663;-51
2021/01/04 05:33:08;;;;;;;15.43;12.03;;;6.90;91.10;;;;;;5051393;28;21049;-51
2021/01/04 05:35:35;;;;;;;11.50;9.80;;;6.90;91.30;;;;;;5051915;28;20651;-50
2021/01/04 05:38:05;;;;;;;11.57;10.30;;;6.90;91.10;;;;;;5052464;28;20612;-51
2021/01/04 05:40:53;;;;;;;12.60;11.03;;;6.90;91.20;;;;;;5053865;28;20626;-50
2021/01/04 05:43:25;;;;;;;11.00;9.90;;;6.90;91.30;;;;;;5072304;28;20661;-51
2021/01/04 05:45:55;;;;;;;13.27;10.53;;;6.90;91.30;;;;;;5070802;28;20626;-51
2021/01/04 05:48:38;;;;;;;11.40;10.23;;;6.90;91.40;;;;;;5071574;28;20638;-51
2021/01/04 05:51:08;;;;;;;13.77;10.90;;;6.90;91.50;;;;;;5071777;28;20630;-51
2021/01/04 05:53:35;;;;;;;11.57;9.67;;;6.90;91.30;;;;;;5069834;28;20726;-50
2021/01/04 05:56:01;;;;;;;11.03;9.83;;;6.90;91.30;;;;;;5070396;28;20651;-51
2021/01/04 05:58:30;;;;;;;10.90;9.80;;;6.90;91.30;;;;;;5071105;28;20645;-51
2021/01/04 06:01:10;;;;;;;11.90;10.43;;;6.90;91.40;;;;;;5071374;28;20672;-51
2021/01/04 06:03:37;;;;;;;10.03;9.10;;;6.90;91.50;;;;;;5070310;28;20689;-49
2021/01/04 06:06:09;;;;;;;12.10;10.83;;;6.90;91.40;;;;;;5071370;28;20743;-51
2021/01/04 06:08:36;;;;;;;12.67;11.43;;;6.90;91.30;;;;;;5070400;28;20655;-50
2021/01/04 06:11:06;;;;;;;11.13;9.57;;;6.90;91.10;;;;;;5071108;28;20623;-50
2021/01/04 06:13:37;;;;;;;12.40;11.10;;;6.90;91.20;;;;;;5070275;28;20717;-51
2021/01/04 06:16:09;;;;;;;12.20;10.90;;;6.90;91.20;;;;;;5071579;28;20713;-50
2021/01/04 06:18:39;;;;;;;12.23;11.00;;;6.90;91.10;;;;;;5070674;28;21151;-51
2021/01/04 06:21:23;;;;;;;12.23;10.90;;;6.90;91.20;;;;;;5070961;28;20788;-51
2021/01/04 06:23:50;;;;;;;10.63;9.63;;;6.90;91.10;;;;;;5070121;28;20661;-51
2021/01/04 06:26:20;;;;;;;12.27;9.80;;;6.90;91.10;;;;;;5070863;28;20627;-49
2021/01/04 06:28:53;;;;;;;10.70;9.00;;;6.90;91.20;;;;;;5069516;28;20683;-48
2021/01/04 06:31:43;;;;;;;12.00;9.97;;;7.00;91.30;;;;;;5070048;28;21093;-49
2021/01/04 06:34:18;;;;;;;11.57;10.27;;;7.00;91.10;;;;;;5066026;28;21244;-49
2021/01/04 06:36:48;;;;;;;11.97;10.77;;;7.00;91.20;;;;;;5070136;28;20664;-49
2021/01/04 06:39:18;;;;;;;12.60;11.23;;;7.00;91.20;;;;;;5070484;28;20686;-49
2021/01/04 06:41:44;;;;;;;11.07;9.97;;;7.10;91.10;;;;;;5069989;28;20939;-48
2021/01/04 06:44:16;;;;;;;12.10;10.77;;;7.00;91.00;;;;;;5069019;28;21320;-49
2021/01/04 06:47:20;;;;;;;11.73;9.50;;;7.00;91.00;;;;;;5068817;28;20710;-49
2021/01/04 06:49:59;;;;;;;11.53;10.13;;;7.00;91.20;;;;;;5070295;28;20673;-49
2021/01/04 06:53:01;;;;;;;11.83;10.63;;;7.00;91.10;;;;;;5069738;28;20831;-48
2021/01/04 06:55:59;;;;;;;12.77;10.97;;;7.00;91.20;;;;;;5054321;28;20664;-49
2021/01/04 06:59:10;;;;;;;14.20;11.40;;;7.00;91.30;;;;;;5069155;28;20685;-48
2021/01/04 07:02:11;;;;;;;12.30;11.10;;;6.90;91.30;;;;;;5003431;28;20642;-49
2021/01/04 07:04:57;;;;;;;13.17;11.27;;;6.90;91.50;;;;;;5068784;28;20714;-48
2021/01/04 07:07:33;;;;;;;12.13;10.77;;;6.90;91.40;;;;;;5046771;28;20671;-48
2021/01/04 07:10:26;;;;;;;13.17;10.63;;;6.90;91.40;;;;;;5070164;28;20679;-48
2021/01/04 07:13:19;;;;;;;10.67;9.57;;;6.90;91.50;;;;;;5069417;28;20631;-49
2021/01/04 07:15:51;;;;;;;16.03;11.80;;;6.90;91.50;;;;;;5069862;28;20672;-48
2021/01/04 07:18:26;;;;;;;13.00;10.77;;;6.90;91.40;;;;;;5069554;28;20699;-48
2021/01/04 07:21:08;;;;;;;13.80;11.27;;;6.90;91.50;;;;;;5069658;28;21018;-49
2021/01/04 07:24:12;;;;;;;13.23;10.57;;;6.90;91.70;;;;;;5069312;28;20724;-50
2021/01/04 07:26:44;;;;;;;14.27;12.63;;;6.90;91.50;;;;;;4975252;28;20975;-49
2021/01/04 07:29:35;;;;;;;12.33;10.60;;;6.90;91.40;;;;;;5035027;28;21018;-49
2021/01/04 07:32:04;;;;;;;11.87;10.67;;;6.90;91.50;;;;;;5049525;28;20689;-49
2021/01/04 07:34:32;;;;;;;14.00;11.43;;;6.90;91.40;;;;;;5054066;28;20651;-49
2021/01/04 07:37:02;;;;;;;13.70;12.30;;;6.90;91.30;;;;;;5070177;28;20778;-49
2021/01/04 07:39:37;;;;;;;14.33;12.80;;;6.90;91.30;;;;;;5070405;28;20704;-48
2021/01/04 07:42:33;;;;;;;12.97;11.57;;;6.90;91.40;;;;;;5069962;28;20626;-50
2021/01/04 07:45:29;;;;;;;12.57;11.20;;;7.00;91.40;;;;;;5070141;28;20638;-49
2021/01/04 07:48:36;;;;;;;13.83;10.17;;;7.00;91.30;;;;;;5068892;28;20900;-50
2021/01/04 07:51:35;;;;;;;14.93;11.50;;;6.90;91.30;;;;;;5066464;28;20643;-49
2021/01/04 07:54:43;;;;;;;12.80;11.13;;;7.00;91.30;;;;;;5067835;28;20802;-50
2021/01/04 07:57:46;;;;;;;14.97;11.40;;;7.00;91.40;;;;;;5069575;28;20655;-49
2021/01/04 08:00:30;;;;;;;14.70;12.20;;;6.90;91.30;;;;;;5069786;28;20947;-50
2021/01/04 08:03:38;;;;;;;14.47;12.37;;;7.00;91.30;;;;;;5068327;28;20744;-52
2021/01/04 08:06:15;;;;;;;12.50;11.07;;;7.00;91.40;;;;;;5069983;28;20908;-49
2021/01/04 08:08:47;;;;;;;14.67;10.83;;;7.00;91.20;;;;;;5051475;28;20684;-51
2021/01/04 08:11:55;;;;;;;16.13;12.33;;;7.00;91.20;;;;;;5069474;28;20687;-48
2021/01/04 08:14:52;;;;;;;16.63;12.10;;;7.00;91.20;;;;;;5069071;28;20658;-48
2021/01/04 08:17:27;;;;;;;14.50;12.37;;;7.00;91.40;;;;;;5069443;28;21196;-51
2021/01/04 08:19:55;;;;;;;14.07;12.13;;;7.00;91.20;;;;;;5069501;28;20652;-51
2021/01/04 08:22:58;;;;;;;12.37;10.90;;;7.00;91.10;;;;;;5068610;28;20628;-51
2021/01/04 08:25:50;;;;;;;12.43;11.00;;;7.10;91.20;;;;;;5006529;28;20692;-50
2021/01/04 08:28:21;;;;;;;14.63;12.70;;;7.10;91.30;;;;;;5062423;28;20696;-51
2021/01/04 08:30:57;;;;;;;15.93;12.80;;;7.10;91.20;;;;;;5055103;28;21206;-52
2021/01/04 08:33:26;;;;;;;12.77;11.50;;;7.10;91.30;;;;;;5048921;28;20666;-51
2021/01/04 08:35:53;;;;;;;16.30;13.07;;;7.10;91.10;;;;;;5049324;28;21045;-51
2021/01/04 08:38:34;;;;;;;13.73;11.07;;;7.10;91.00;;;;;;5048977;28;20624;-49
2021/01/04 08:41:04;;;;;;;13.37;10.97;;;7.10;91.00;;;;;;5048951;28;21211;-51
2021/01/04 08:43:37;;;;;;;21.60;13.00;;;7.10;91.00;;;;;;5048781;28;21351;-51
2021/01/04 08:46:20;;;;;;;13.90;12.00;;;7.20;91.00;;;;;;5060207;28;20968;-49
2021/01/04 08:48:47;;;;;;;14.40;11.97;;;7.10;91.00;;;;;;5069351;28;21069;-49
2021/01/04 08:51:25;;;;;;;15.53;13.03;;;7.10;91.00;;;;;;5068582;28;20624;-49
2021/01/04 08:53:52;;;;;;;17.40;12.17;;;7.10;91.00;;;;;;5068836;28;20713;-49
2021/01/04 08:56:29;;;;;;;17.30;12.97;;;7.20;91.10;;;;;;5068681;28;20794;-49
2021/01/04 08:59:07;;;;;;;15.90;13.47;;;7.20;91.00;;;;;;5066273;28;21154;-48
2021/01/04 09:01:34;;;;;;;13.13;11.77;;;7.20;91.40;;;;;;5068280;28;20689;-50
2021/01/04 09:04:06;;;;;;;14.00;10.93;;;7.20;91.00;;;;;;5068298;28;21231;-49
2021/01/04 09:06:33;;;;;;;14.83;12.63;;;7.20;90.90;;;;;;5069251;28;20669;-50
2021/01/04 09:09:11;;;;;;;15.30;12.80;;;7.20;90.90;;;;;;5072141;28;20631;-50
2021/01/04 09:11:40;;;;;;;15.80;13.20;;;7.20;90.70;;;;;;5071276;28;20700;-49
2021/01/04 09:14:17;;;;;;;14.50;13.03;;;7.30;90.60;;;;;;5070947;28;21024;-49
2021/01/04 09:16:44;;;;;;;16.13;13.07;;;7.30;90.40;;;;;;5072044;28;21023;-51
2021/01/04 09:19:20;;;;;;;13.73;12.20;;;7.30;90.50;;;;;;5071636;28;20700;-51
2021/01/04 09:21:46;;;;;;;16.93;12.83;;;7.30;90.50;;;;;;5072172;28;20626;-52
2021/01/04 09:24:34;;;;;;;13.63;11.87;;;7.30;90.50;;;;;;5059212;28;21252;-52
2021/01/04 09:27:05;;;;;;;14.57;12.47;;;7.30;90.60;;;;;;5072343;28;20776;-53
2021/01/04 09:29:36;;;;;;;16.00;13.03;;;7.40;90.60;;;;;;5059859;28;20650;-50
2021/01/04 09:32:06;;;;;;;14.90;11.97;;;7.30;90.50;;;;;;5052038;28;20654;-50
2021/01/04 09:34:33;;;;;;;15.43;13.67;;;7.30;90.60;;;;;;5064027;28;20652;-49
2021/01/04 09:37:04;;;;;;;13.37;11.97;;;7.30;90.60;;;;;;5072885;28;20654;-49
2021/01/04 09:39:31;;;;;;;15.73;12.77;;;7.30;90.60;;;;;;5071632;28;20635;-50
2021/01/04 09:41:59;;;;;;;17.40;12.90;;;7.30;90.60;;;;;;5071663;28;20640;-50
2021/01/04 09:44:26;;;;;;;17.87;13.60;;;7.30;90.70;;;;;;5070270;28;20981;-49
2021/01/04 09:46:56;;;;;;;16.57;13.90;;;7.30;90.70;;;;;;5071211;28;20895;-48
2021/01/04 09:49:24;;;;;;;15.47;12.90;;;7.30;90.70;;;;;;5071812;28;20650;-49
2021/01/04 09:51:52;;;;;;;14.73;12.23;;;7.20;90.70;;;;;;5070714;28;20696;-50
2021/01/04 09:54:22;;;;;;;16.07;12.60;;;7.20;90.80;;;;;;5071828;28;20651;-51
2021/01/04 09:56:49;;;;;;;17.80;14.47;;;7.20;90.90;;;;;;5071849;28;20655;-52
2021/01/04 09:59:19;;;;;;;14.53;12.20;;;7.30;91.00;;;;;;5071822;28;20715;-51
2021/01/04 10:01:48;;;;;;;16.07;13.27;;;7.30;91.00;;;;;;5072684;28;20716;-51
2021/01/04 10:04:25;;;;;;;16.10;12.60;;;7.30;91.00;;;;;;5077143;28;20755;-51
2021/01/04 10:06:51;;;;;;;16.10;13.17;;;7.30;91.10;;;;;;5091317;28;20703;-51
2021/01/04 10:09:18;;;;;;;15.63;13.17;;;7.30;91.10;;;;;;5073924;28;20624;-51
2021/01/04 10:11:46;;;;;;;15.60;13.53;;;7.40;91.00;;;;;;5071678;28;20626;-51
2021/01/04 10:14:14;;;;;;;20.30;13.03;;;7.40;91.00;;;;;;5071302;28;21247;-50
2021/01/04 10:16:42;;;;;;;18.53;13.17;;;7.40;91.00;;;;;;5070913;28;20667;-52
2021/01/04 10:19:11;;;;;;;17.40;13.67;;;7.40;91.10;;;;;;5051304;28;20611;-52
2021/01/04 10:21:43;;;;;;;17.10;13.90;;;7.50;90.80;;;;;;5051693;28;20737;-51
2021/01/04 10:24:13;;;;;;;18.00;12.80;;;7.50;90.80;;;;;;5048046;28;20659;-52
2021/01/04 10:26:40;;;;;;;15.97;12.93;;;7.50;90.70;;;;;;5067025;28;20635;-51
2021/01/04 10:29:07;;;;;;;20.60;14.43;;;7.50;90.70;;;;;;5051325;28;20628;-51
2021/01/04 10:31:35;;;;;;;17.07;11.90;;;7.50;90.50;;;;;;5079589;28;20689;-57
2021/01/04 10:34:04;;;;;;;16.37;14.20;;;7.50;90.50;;;;;;5052575;28;20690;-51
2021/01/04 10:36:30;;;;;;;17.33;13.47;;;7.50;90.50;;;;;;5083112;28;20704;-51
2021/01/04 10:38:59;;;;;;;17.90;13.47;;;7.50;90.60;;;;;;5071319;28;20680;-51
2021/01/04 10:41:28;;;;;;;19.90;16.07;;;7.50;90.50;;;;;;5064799;28;20677;-51
2021/01/04 10:44:06;;;;;;;16.17;13.50;;;7.50;90.50;;;;;;5078228;28;20987;-51
2021/01/04 10:46:35;;;;;;;19.80;13.63;;;7.50;90.40;;;;;;5081812;28;20920;-51
2021/01/04 10:49:05;;;;;;;17.17;12.50;;;7.50;90.40;;;;;;5090988;28;20671;-50
2021/01/04 10:51:32;;;;;;;19.00;15.03;;;7.50;90.30;;;;;;5090700;28;21173;-52
2021/01/04 10:54:00;;;;;;;17.93;14.40;;;7.50;90.40;;;;;;5090712;28;20689;-51
2021/01/04 10:56:38;;;;;;;16.50;13.93;;;7.50;90.50;;;;;;5069709;28;20666;-52
2021/01/04 10:59:14;;;;;;;16.87;13.13;;;7.50;90.40;;;;;;5070329;28;20620;-52
2021/01/04 11:01:46;;;;;;;17.97;15.10;;;7.50;90.60;;;;;;5054784;28;20955;-51
2021/01/04 11:04:14;;;;;;;15.00;13.17;;;7.50;90.40;;;;;;5032117;28;20668;-52
2021/01/04 11:06:42;;;;;;;17.33;12.47;;;7.50;90.40;;;;;;5056607;28;20692;-50
2021/01/04 11:09:15;;;;;;;15.83;14.10;;;7.50;90.40;;;;;;5069932;28;20620;-52
2021/01/04 11:11:43;;;;;;;16.13;14.00;;;7.60;90.50;;;;;;5070615;28;20663;-52
2021/01/04 11:14:13;;;;;;;17.93;14.47;;;7.60;90.50;;;;;;5069296;28;20680;-52
2021/01/04 11:16:41;;;;;;;15.87;13.47;;;7.60;90.50;;;;;;5070210;28;20630;-51
2021/01/04 11:19:08;;;;;;;16.57;13.37;;;7.60;90.40;;;;;;5070483;28;20636;-51
2021/01/04 11:21:37;;;;;;;18.40;14.80;;;7.60;90.90;;;;;;5060949;28;21003;-51
2021/01/04 11:24:04;;;;;;;21.20;15.90;;;7.60;91.00;;;;;;5068772;28;20656;-50
2021/01/04 11:26:32;;;;;;;17.40;14.60;;;7.70;90.80;;;;;;5070771;28;21231;-49
2021/01/04 11:28:59;;;;;;;18.40;13.77;;;7.60;90.50;;;;;;5070312;28;20926;-50
2021/01/04 11:31:30;;;;;;;20.07;14.67;;;7.70;90.50;;;;;;5064549;28;20739;-49
2021/01/04 11:33:57;;;;;;;18.80;15.20;;;7.70;90.40;;;;;;5055787;28;20657;-51
2021/01/04 11:36:24;;;;;;;15.00;13.30;;;7.70;90.70;;;;;;5059693;28;20970;-49
2021/01/04 11:38:51;;;;;;;17.00;14.40;;;7.70;90.40;;;;;;5066047;28;21104;-50
2021/01/04 11:41:18;;;;;;;16.20;13.10;;;7.70;90.40;;;;;;5065635;28;20631;-50
2021/01/04 11:43:47;;;;;;;15.70;12.60;;;7.80;90.40;;;;;;5062717;28;21266;-50
2021/01/04 11:46:14;;;;;;;17.90;15.80;;;7.70;90.70;;;;;;5049973;28;20636;-49
2021/01/04 11:48:41;;;;;;;16.93;14.63;;;7.80;90.70;;;;;;5061355;28;20640;-50
2021/01/04 11:51:08;;;;;;;22.17;14.30;;;7.80;90.40;;;;;;5068957;28;20677;-50
2021/01/04 11:53:35;;;;;;;15.77;13.90;;;7.80;90.40;;;;;;5068602;28;20660;-49
2021/01/04 11:56:01;;;;;;;19.00;14.53;;;7.80;90.40;;;;;;5055537;28;20637;-50
2021/01/04 11:58:28;;;;;;;15.50;14.00;;;7.80;90.40;;;;;;5049698;28;20701;-50
2021/01/04 12:00:56;;;;;;;17.97;14.47;;;7.80;90.30;;;;;;5060230;28;20677;-49
2021/01/04 12:03:23;;;;;;;17.20;13.53;;;7.80;90.20;;;;;;5057185;28;20660;-50
2021/01/04 12:05:50;;;;;;;16.33;14.37;;;7.90;90.10;;;;;;5066904;28;20636;-50
2021/01/04 12:08:17;;;;;;;15.77;13.20;;;7.80;90.10;;;;;;5053292;28;20656;-49
2021/01/04 12:10:43;;;;;;;17.73;13.60;;;7.80;90.10;;;;;;5054782;28;20639;-50
2021/01/04 12:13:11;;;;;;;19.83;15.30;;;7.80;90.20;;;;;;5056849;28;20656;-49
2021/01/04 12:15:38;;;;;;;18.07;14.23;;;7.80;90.20;;;;;;5049450;28;21049;-52
2021/01/04 12:18:06;;;;;;;17.40;13.90;;;7.90;90.20;;;;;;5068032;28;20661;-52
2021/01/04 12:20:33;;;;;;;17.03;13.63;;;7.80;90.10;;;;;;5069613;28;20655;-52
2021/01/04 12:23:00;;;;;;;17.73;15.57;;;7.80;90.20;;;;;;5066381;28;20745;-51
2021/01/04 12:25:27;;;;;;;17.60;15.37;;;7.90;90.30;;;;;;5069506;28;20636;-52
2021/01/04 12:27:54;;;;;;;17.20;13.90;;;7.80;90.20;;;;;;5069638;28;20632;-52
2021/01/04 12:30:21;;;;;;;16.43;13.27;;;7.80;90.10;;;;;;5055158;28;20695;-52
2021/01/04 12:32:48;;;;;;;16.87;13.53;;;7.90;90.10;;;;;;5048957;28;20632;-50
2021/01/04 12:35:16;;;;;;;19.77;15.30;;;7.90;90.20;;;;;;5050968;28;20718;-52
2021/01/04 12:37:43;;;;;;;14.00;11.93;;;7.90;90.10;;;;;;5048402;28;21294;-52
2021/01/04 12:40:11;;;;;;;18.30;15.00;;;7.90;90.10;;;;;;5049919;28;20621;-52
2021/01/04 12:42:39;;;;;;;19.23;17.13;;;7.90;90.10;;;;;;5051857;28;20678;-52
2021/01/04 12:45:07;;;;;;;19.13;14.53;;;7.90;90.10;;;;;;5053007;28;21197;-52
2021/01/04 12:47:34;;;;;;;15.27;12.70;;;7.90;90.10;;;;;;5053397;28;20773;-52
2021/01/04 12:50:01;;;;;;;15.87;12.97;;;7.90;90.10;;;;;;5052989;28;20625;-52
2021/01/04 12:52:28;;;;;;;16.20;13.73;;;7.90;90.20;;;;;;5053143;28;20663;-52
2021/01/04 12:54:55;;;;;;;18.50;15.57;;;7.90;90.30;;;;;;5055389;28;20656;-51
2021/01/04 12:57:24;;;;;;;16.80;13.63;;;7.90;90.20;;;;;;5072650;28;20725;-52
2021/01/04 12:59:51;;;;;;;17.57;15.67;;;7.90;90.20;;;;;;5055031;28;20621;-50
2021/01/04 13:02:18;;;;;;;18.77;14.70;;;7.90;90.60;;;;;;5072891;28;20623;-52
2021/01/04 13:04:45;;;;;;;18.20;14.33;;;8.00;90.10;;;;;;5072572;28;21224;-53
2021/01/04 13:07:12;;;;;;;18.53;14.40;;;8.00;90.10;;;;;;5072504;28;20755;-52
2021/01/04 13:09:40;;;;;;;17.53;13.67;;;8.00;90.10;;;;;;5072793;28;20632;-52
2021/01/04 13:12:07;;;;;;;15.40;13.60;;;7.90;90.10;;;;;;5071796;28;20709;-52